createdAt,value
2017-11-24T00:00:36.504Z,1004.93
2017-11-24T00:01:46.219Z,1004.89
2017-11-24T00:02:56.213Z,1004.94
2017-11-24T00:04:06.185Z,1004.92
2017-11-24T00:05:15.889Z,1004.93
2017-11-24T00:06:25.879Z,1004.98
2017-11-24T00:07:35.852Z,1004.97
2017-11-24T00:08:45.832Z,1005.03
2017-11-24T00:09:55.821Z,1005.06
2017-11-24T00:11:05.261Z,1005.1
2017-11-24T00:12:15.230Z,1005.11
2017-11-24T00:13:24.415Z,1005.06
2017-11-24T00:14:34.386Z,1005.05
2017-11-24T00:15:44.368Z,1005.06
2017-11-24T00:16:54.351Z,1005.06
2017-11-24T00:18:03.804Z,1005.12
2017-11-24T00:19:13.511Z,1005.11
2017-11-24T00:20:22.974Z,1005.05
2017-11-24T00:21:32.959Z,1005.11
2017-11-24T00:22:42.921Z,1005.1
2017-11-24T00:23:52.897Z,1005.12
2017-11-24T00:25:02.344Z,1005.13
2017-11-24T00:26:12.579Z,1005.14
2017-11-24T00:27:22.301Z,1005.14
2017-11-24T00:28:32.296Z,1005.08
2017-11-24T00:29:42.015Z,1005.07
2017-11-24T00:30:51.727Z,1005.08
2017-11-24T00:32:01.178Z,1005.06
2017-11-24T00:33:11.157Z,1005.02
2017-11-24T00:34:20.889Z,1004.95
2017-11-24T00:35:30.900Z,1004.94
2017-11-24T00:36:40.621Z,1004.98
2017-11-24T00:37:50.587Z,1005
2017-11-24T00:39:00.303Z,1005.02
2017-11-24T00:40:09.498Z,1005.08
2017-11-24T00:41:19.461Z,1005.08
2017-11-24T00:42:28.908Z,1005.13
2017-11-24T00:43:38.626Z,1005.1
2017-11-24T00:44:48.331Z,1005.1
2017-11-24T00:45:58.054Z,1005.15
2017-11-24T00:47:08.020Z,1005.18
2017-11-24T00:48:17.998Z,1005.15
2017-11-24T00:49:27.999Z,1005.16
2017-11-24T00:50:37.212Z,1005.15
2017-11-24T00:51:47.187Z,1005.14
2017-11-24T00:52:57.156Z,1005.23
2017-11-24T00:54:07.123Z,1005.2
2017-11-24T00:55:17.099Z,1005.23
2017-11-24T00:56:26.811Z,1005.21
2017-11-24T00:57:36.795Z,1005.17
2017-11-24T00:58:46.788Z,1005.21
2017-11-24T00:59:56.238Z,1005.27
2017-11-24T01:01:05.937Z,1005.3
2017-11-24T01:02:15.927Z,1005.3
2017-11-24T01:03:25.925Z,1005.38
2017-11-24T01:04:35.911Z,1005.4
2017-11-24T01:05:45.621Z,1005.38
2017-11-24T01:06:55.331Z,1005.44
2017-11-24T01:08:05.042Z,1005.41
2017-11-24T01:09:15.042Z,1005.48
2017-11-24T01:10:25.029Z,1005.48
2017-11-24T01:11:34.748Z,1005.5
2017-11-24T01:12:44.466Z,1005.47
2017-11-24T01:13:54.169Z,1005.51
2017-11-24T01:15:03.350Z,1005.44
2017-11-24T01:16:12.789Z,1005.33
2017-11-24T01:17:22.492Z,1005.32
2017-11-24T01:18:31.940Z,1005.33
2017-11-24T01:19:41.655Z,1005.3
2017-11-24T01:20:51.641Z,1005.33
2017-11-24T01:22:01.107Z,1005.33
2017-11-24T01:23:10.822Z,1005.38
2017-11-24T01:24:20.824Z,1005.38
2017-11-24T01:25:30.530Z,1005.36
2017-11-24T01:26:40.487Z,1005.32
2017-11-24T01:27:50.192Z,1005.32
2017-11-24T01:28:59.911Z,1005.3
2017-11-24T01:30:09.612Z,1005.28
2017-11-24T01:31:19.584Z,1005.31
2017-11-24T01:32:28.512Z,1005.28
2017-11-24T01:33:37.714Z,1005.3
2017-11-24T01:34:47.167Z,1005.29
2017-11-24T01:35:56.874Z,1005.31
2017-11-24T01:37:06.333Z,1005.34
2017-11-24T01:38:16.049Z,1005.35
2017-11-24T01:39:25.499Z,1005.35
2017-11-24T01:40:34.675Z,1005.36
2017-11-24T01:41:44.126Z,1005.34
2017-11-24T01:42:54.097Z,1005.32
2017-11-24T01:44:03.549Z,1005.33
2017-11-24T01:45:13.262Z,1005.31
2017-11-24T01:46:23.268Z,1005.28
2017-11-24T01:47:33.276Z,1005.25
2017-11-24T01:48:43.269Z,1005.22
2017-11-24T01:49:53.295Z,1005.2
2017-11-24T01:51:03.004Z,1005.14
2017-11-24T01:52:12.713Z,1005.19
2017-11-24T01:53:22.715Z,1005.2
2017-11-24T01:54:32.430Z,1005.19
2017-11-24T01:55:41.633Z,1005.22
2017-11-24T01:56:51.376Z,1005.26
2017-11-24T01:58:01.084Z,1005.23
2017-11-24T01:59:11.109Z,1005.23
2017-11-24T02:00:20.829Z,1005.26
2017-11-24T02:01:30.307Z,1005.29
2017-11-24T02:02:40.278Z,1005.3
2017-11-24T02:03:49.979Z,1005.28
2017-11-24T02:04:59.691Z,1005.28
2017-11-24T02:06:09.399Z,1005.32
2017-11-24T02:07:18.857Z,1005.34
2017-11-24T02:08:28.300Z,1005.31
2017-11-24T02:09:38.279Z,1005.33
2017-11-24T02:10:48.291Z,1005.36
2017-11-24T02:11:58.027Z,1005.38
2017-11-24T02:13:07.481Z,1005.41
2017-11-24T02:14:17.504Z,1005.41
2017-11-24T02:15:27.465Z,1005.42
2017-11-24T02:16:36.917Z,1005.45
2017-11-24T02:17:46.113Z,1005.48
2017-11-24T02:18:56.107Z,1005.54
2017-11-24T02:20:05.833Z,1005.51
2017-11-24T02:21:15.535Z,1005.57
2017-11-24T02:22:25.266Z,1005.53
2017-11-24T02:23:34.730Z,1005.56
2017-11-24T02:24:44.711Z,1005.54
2017-11-24T02:25:54.175Z,1005.5
2017-11-24T02:27:03.907Z,1005.53
2017-11-24T02:28:13.364Z,1005.49
2017-11-24T02:29:23.341Z,1005.44
2017-11-24T02:30:33.316Z,1005.43
2017-11-24T02:31:43.286Z,1005.41
2017-11-24T02:32:53.001Z,1005.38
2017-11-24T02:34:03.032Z,1005.34
2017-11-24T02:35:13.017Z,1005.32
2017-11-24T02:36:23.000Z,1005.29
2017-11-24T02:37:32.714Z,1005.31
2017-11-24T02:38:42.693Z,1005.31
2017-11-24T02:39:52.684Z,1005.3
2017-11-24T02:41:02.391Z,1005.29
2017-11-24T02:42:12.102Z,1005.27
2017-11-24T02:43:21.815Z,1005.32
2017-11-24T02:44:31.543Z,1005.27
2017-11-24T02:45:41.264Z,1005.19
2017-11-24T02:46:51.256Z,1005.22
2017-11-24T02:48:00.692Z,1005.21
2017-11-24T02:49:10.409Z,1005.14
2017-11-24T02:50:19.849Z,1005.12
2017-11-24T02:51:29.830Z,1005.17
2017-11-24T02:52:39.811Z,1005.23
2017-11-24T02:53:49.528Z,1005.24
2017-11-24T02:54:58.999Z,1005.23
2017-11-24T02:56:08.734Z,1005.28
2017-11-24T02:57:18.447Z,1005.2
2017-11-24T02:58:28.161Z,1005.18
2017-11-24T02:59:37.600Z,1005.21
2017-11-24T03:00:47.322Z,1005.18
2017-11-24T03:01:57.021Z,1005.16
2017-11-24T03:03:06.987Z,1005.23
2017-11-24T03:04:16.957Z,1005.21
2017-11-24T03:05:26.950Z,1005.25
2017-11-24T03:06:36.912Z,1005.23
2017-11-24T03:07:46.898Z,1005.17
2017-11-24T03:08:56.879Z,1005.13
2017-11-24T03:10:06.577Z,1005.11
2017-11-24T03:11:16.551Z,1005.15
2017-11-24T03:12:26.265Z,1005.15
2017-11-24T03:13:35.718Z,1005.12
2017-11-24T03:14:45.429Z,1005.12
2017-11-24T03:15:55.394Z,1005.14
2017-11-24T03:17:05.363Z,1005.18
2017-11-24T03:18:14.812Z,1005.13
2017-11-24T03:19:24.787Z,1005.18
2017-11-24T03:20:34.759Z,1005.18
2017-11-24T03:21:44.516Z,1005.14
2017-11-24T03:22:54.247Z,1005.14
2017-11-24T03:24:03.707Z,1005.12
2017-11-24T03:25:13.180Z,1005.1
2017-11-24T03:26:23.159Z,1005.06
2017-11-24T03:27:32.615Z,1005.03
2017-11-24T03:28:42.598Z,1005
2017-11-24T03:29:52.589Z,1005.02
2017-11-24T03:31:02.554Z,1005.03
2017-11-24T03:32:12.322Z,1005.07
2017-11-24T03:33:22.029Z,1005.08
2017-11-24T03:34:31.461Z,1005.05
2017-11-24T03:35:41.058Z,1005.09
2017-11-24T03:36:50.776Z,1005.06
2017-11-24T03:38:00.494Z,1005.03
2017-11-24T03:39:10.620Z,1005.06
2017-11-24T03:40:20.077Z,1005.03
2017-11-24T03:41:29.515Z,1005.03
2017-11-24T03:42:39.229Z,1005.08
2017-11-24T03:43:48.942Z,1005.04
2017-11-24T03:44:58.663Z,1005.06
2017-11-24T03:46:08.641Z,1005.12
2017-11-24T03:47:17.843Z,1005.08
2017-11-24T03:48:27.812Z,1005.09
2017-11-24T03:49:37.791Z,1005.08
2017-11-24T03:50:47.531Z,1005.04
2017-11-24T03:51:57.253Z,1005.03
2017-11-24T03:53:07.231Z,1005.02
2017-11-24T03:54:16.942Z,1005
2017-11-24T03:55:26.916Z,1004.96
2017-11-24T03:56:36.630Z,1004.98
2017-11-24T03:57:46.080Z,1004.91
2017-11-24T03:58:56.059Z,1004.96
2017-11-24T04:00:06.054Z,1004.95
2017-11-24T04:01:15.772Z,1004.97
2017-11-24T04:02:25.474Z,1005
2017-11-24T04:03:35.184Z,1005.01
2017-11-24T04:04:44.884Z,1005.02
2017-11-24T04:05:54.594Z,1005.01
2017-11-24T04:07:04.564Z,1005.03
2017-11-24T04:08:14.026Z,1004.98
2017-11-24T04:09:23.778Z,1004.92
2017-11-24T04:10:33.761Z,1004.89
2017-11-24T04:11:43.468Z,1004.84
2017-11-24T04:12:53.480Z,1004.84
2017-11-24T04:14:02.921Z,1004.8
2017-11-24T04:15:12.918Z,1004.79
2017-11-24T04:16:22.897Z,1004.79
2017-11-24T04:17:32.351Z,1004.76
2017-11-24T04:18:42.055Z,1004.74
2017-11-24T04:19:51.759Z,1004.74
2017-11-24T04:21:01.811Z,1004.7
2017-11-24T04:22:11.808Z,1004.69
2017-11-24T04:23:21.777Z,1004.63
2017-11-24T04:24:31.754Z,1004.55
2017-11-24T04:25:41.468Z,1004.52
2017-11-24T04:26:51.189Z,1004.47
2017-11-24T04:28:00.904Z,1004.43
2017-11-24T04:29:10.874Z,1004.44
2017-11-24T04:30:20.581Z,1004.45
2017-11-24T04:31:30.295Z,1004.48
2017-11-24T04:32:40.008Z,1004.51
2017-11-24T04:33:49.451Z,1004.53
2017-11-24T04:34:59.420Z,1004.54
2017-11-24T04:36:09.413Z,1004.54
2017-11-24T04:37:19.128Z,1004.61
2017-11-24T04:38:28.568Z,1004.6
2017-11-24T04:39:38.277Z,1004.62
2017-11-24T04:40:47.728Z,1004.62
2017-11-24T04:41:57.439Z,1004.61
2017-11-24T04:43:07.170Z,1004.65
2017-11-24T04:44:17.144Z,1004.63
2017-11-24T04:45:27.107Z,1004.64
2017-11-24T04:46:36.828Z,1004.65
2017-11-24T04:47:46.023Z,1004.66
2017-11-24T04:48:55.993Z,1004.71
2017-11-24T04:50:05.968Z,1004.72
2017-11-24T04:51:15.965Z,1004.71
2017-11-24T04:52:25.976Z,1004.66
2017-11-24T04:53:35.685Z,1004.63
2017-11-24T04:54:45.405Z,1004.6
2017-11-24T04:55:55.110Z,1004.61
2017-11-24T04:57:05.084Z,1004.6
2017-11-24T04:58:15.053Z,1004.62
2017-11-24T04:59:24.770Z,1004.6
2017-11-24T05:00:34.489Z,1004.66
2017-11-24T05:01:43.937Z,1004.66
2017-11-24T05:02:53.910Z,1004.58
2017-11-24T05:04:03.661Z,1004.58
2017-11-24T05:05:13.384Z,1004.6
2017-11-24T05:06:23.410Z,1004.65
2017-11-24T05:07:33.131Z,1004.68
2017-11-24T05:08:42.850Z,1004.65
2017-11-24T05:09:52.825Z,1004.67
2017-11-24T05:11:02.796Z,1004.6
2017-11-24T05:12:12.513Z,1004.64
2017-11-24T05:13:22.477Z,1004.6
2017-11-24T05:14:32.456Z,1004.58
2017-11-24T05:15:42.188Z,1004.59
2017-11-24T05:16:51.879Z,1004.52
2017-11-24T05:18:01.591Z,1004.51
2017-11-24T05:19:11.548Z,1004.56
2017-11-24T05:20:21.538Z,1004.55
2017-11-24T05:21:31.238Z,1004.58
2017-11-24T05:22:40.950Z,1004.53
2017-11-24T05:23:50.653Z,1004.47
2017-11-24T05:25:00.363Z,1004.42
2017-11-24T05:26:09.819Z,1004.4
2017-11-24T05:27:19.784Z,1004.31
2017-11-24T05:28:29.754Z,1004.27
2017-11-24T05:29:39.469Z,1004.23
2017-11-24T05:30:49.504Z,1004.2
2017-11-24T05:31:59.485Z,1004.11
2017-11-24T05:33:09.209Z,1004.09
2017-11-24T05:34:18.935Z,1004.01
2017-11-24T05:35:28.393Z,1004.05
2017-11-24T05:36:37.846Z,1004.02
2017-11-24T05:37:47.578Z,1004.02
2017-11-24T05:38:57.538Z,1003.99
2017-11-24T05:40:07.003Z,1004.06
2017-11-24T05:41:16.442Z,1004.08
2017-11-24T05:42:26.433Z,1004.09
2017-11-24T05:43:35.872Z,1004.13
2017-11-24T05:44:45.315Z,1004.16
2017-11-24T05:45:55.022Z,1004.18
2017-11-24T05:47:04.998Z,1004.24
2017-11-24T05:48:14.974Z,1004.22
2017-11-24T05:49:24.973Z,1004.24
2017-11-24T05:50:34.413Z,1004.19
2017-11-24T05:51:44.132Z,1004.18
2017-11-24T05:52:54.111Z,1004.11
2017-11-24T05:54:04.073Z,1004.15
2017-11-24T05:55:14.033Z,1004.1
2017-11-24T05:56:24.034Z,1004.1
2017-11-24T05:57:33.745Z,1004.09
2017-11-24T05:58:43.195Z,1004.22
2017-11-24T05:59:53.185Z,1004.24
2017-11-24T06:01:03.151Z,1004.27
2017-11-24T06:02:12.862Z,1004.33
2017-11-24T06:03:22.570Z,1004.33
2017-11-24T06:04:32.561Z,1004.3
2017-11-24T06:05:42.015Z,1004.28
2017-11-24T06:06:51.990Z,1004.23
2017-11-24T06:08:01.698Z,1004.29
2017-11-24T06:09:11.673Z,1004.29
2017-11-24T06:10:21.656Z,1004.29
2017-11-24T06:11:31.631Z,1004.27
2017-11-24T06:12:41.626Z,1004.21
2017-11-24T06:13:51.331Z,1004.2
2017-11-24T06:15:01.052Z,1004.19
2017-11-24T06:16:10.524Z,1004.24
2017-11-24T06:17:20.516Z,1004.25
2017-11-24T06:18:30.503Z,1004.2
2017-11-24T06:19:40.203Z,1004.18
2017-11-24T06:20:50.167Z,1004.16
2017-11-24T06:22:00.143Z,1004.13
2017-11-24T06:23:09.587Z,1004
2017-11-24T06:24:19.332Z,1003.95
2017-11-24T06:25:29.039Z,1003.88
2017-11-24T06:26:38.762Z,1003.8
2017-11-24T06:27:48.726Z,1003.88
2017-11-24T06:28:58.437Z,1003.86
2017-11-24T06:30:08.435Z,1003.87
2017-11-24T06:31:18.462Z,1003.87
2017-11-24T06:32:28.428Z,1003.83
2017-11-24T06:33:38.171Z,1003.8
2017-11-24T06:34:48.138Z,1003.79
2017-11-24T06:35:58.125Z,1003.82
2017-11-24T06:37:08.117Z,1003.81
2017-11-24T06:38:17.817Z,1003.82
2017-11-24T06:39:27.539Z,1003.86
2017-11-24T06:40:37.529Z,1003.78
2017-11-24T06:41:47.265Z,1003.74
2017-11-24T06:42:56.996Z,1003.71
2017-11-24T06:44:06.973Z,1003.68
2017-11-24T06:45:16.933Z,1003.66
2017-11-24T06:46:26.672Z,1003.66
2017-11-24T06:47:36.130Z,1003.71
2017-11-24T06:48:45.846Z,1003.66
2017-11-24T06:49:55.290Z,1003.67
2017-11-24T06:51:05.264Z,1003.7
2017-11-24T06:52:15.267Z,1003.64
2017-11-24T06:53:25.236Z,1003.71
2017-11-24T06:54:34.948Z,1003.71
2017-11-24T06:55:44.949Z,1003.75
2017-11-24T06:56:54.931Z,1003.78
2017-11-24T06:58:04.966Z,1003.74
2017-11-24T06:59:14.434Z,1003.67
2017-11-24T07:00:24.405Z,1003.63
2017-11-24T07:01:33.880Z,1003.54
2017-11-24T07:02:43.851Z,1003.63
2017-11-24T07:03:53.293Z,1003.56
2017-11-24T07:05:02.747Z,1003.62
2017-11-24T07:06:12.736Z,1003.56
2017-11-24T07:07:22.467Z,1003.58
2017-11-24T07:08:32.447Z,1003.53
2017-11-24T07:09:42.164Z,1003.58
2017-11-24T07:10:52.179Z,1003.53
2017-11-24T07:12:02.176Z,1003.49
2017-11-24T07:13:12.185Z,1003.49
2017-11-24T07:14:22.153Z,1003.48
2017-11-24T07:15:31.862Z,1003.45
2017-11-24T07:16:41.568Z,1003.45
2017-11-24T07:17:51.539Z,1003.43
2017-11-24T07:19:01.274Z,1003.38
2017-11-24T07:20:11.022Z,1003.39
2017-11-24T07:21:20.752Z,1003.38
2017-11-24T07:22:30.768Z,1003.34
2017-11-24T07:23:40.482Z,1003.29
2017-11-24T07:24:49.935Z,1003.28
2017-11-24T07:25:59.651Z,1003.24
2017-11-24T07:27:09.612Z,1003.27
2017-11-24T07:28:19.597Z,1003.19
2017-11-24T07:29:29.051Z,1003.14
2017-11-24T07:30:39.043Z,1003.1
2017-11-24T07:31:49.021Z,1003.06
2017-11-24T07:32:58.732Z,1003.08
2017-11-24T07:34:08.171Z,1003.04
2017-11-24T07:35:18.141Z,1003.07
2017-11-24T07:36:27.623Z,1003.09
2017-11-24T07:37:37.340Z,1003.01
2017-11-24T07:38:47.314Z,1003.03
2017-11-24T07:39:56.515Z,1002.96
2017-11-24T07:41:06.240Z,1002.96
2017-11-24T07:42:16.269Z,1002.98
2017-11-24T07:43:26.275Z,1002.99
2017-11-24T07:44:35.717Z,1003.09
2017-11-24T07:45:45.177Z,1003.05
2017-11-24T07:46:55.153Z,1003.08
2017-11-24T07:48:04.874Z,1003.11
2017-11-24T07:49:13.794Z,1003.02
2017-11-24T07:50:23.237Z,1002.97
2017-11-24T07:51:32.950Z,1002.98
2017-11-24T07:52:42.672Z,1002.97
2017-11-24T07:53:52.124Z,1002.91
2017-11-24T07:55:01.884Z,1002.91
2017-11-24T07:56:11.345Z,1002.88
2017-11-24T07:57:21.350Z,1002.88
2017-11-24T07:58:31.323Z,1002.87
2017-11-24T07:59:41.042Z,1002.79
2017-11-24T08:00:51.023Z,1002.7
2017-11-24T08:02:00.744Z,1002.63
2017-11-24T08:03:10.454Z,1002.63
2017-11-24T08:04:20.165Z,1002.69
2017-11-24T08:05:29.915Z,1002.69
2017-11-24T08:06:39.672Z,1002.73
2017-11-24T08:07:49.723Z,1002.7
2017-11-24T08:09:00.136Z,1002.65
2017-11-24T08:10:10.110Z,1002.63
2017-11-24T08:11:19.858Z,1002.47
2017-11-24T08:12:29.564Z,1002.39
2017-11-24T08:13:39.032Z,1002.5
2017-11-24T08:14:49.230Z,1002.57
2017-11-24T08:15:59.263Z,1002.65
2017-11-24T08:17:08.975Z,1002.65
2017-11-24T08:18:19.025Z,1002.54
2017-11-24T08:19:28.484Z,1002.49
2017-11-24T08:20:38.489Z,1002.47
2017-11-24T08:21:48.481Z,1002.64
2017-11-24T08:22:58.207Z,1002.67
2017-11-24T08:24:08.190Z,1002.64
2017-11-24T08:25:17.934Z,1002.61
2017-11-24T08:26:27.912Z,1002.63
2017-11-24T08:27:37.647Z,1002.55
2017-11-24T08:28:47.639Z,1002.61
2017-11-24T08:29:57.376Z,1002.53
2017-11-24T08:31:07.103Z,1002.48
2017-11-24T08:32:17.084Z,1002.36
2017-11-24T08:33:26.798Z,1002.44
2017-11-24T08:34:36.832Z,1002.39
2017-11-24T08:35:46.585Z,1002.33
2017-11-24T08:36:56.299Z,1002.31
2017-11-24T08:38:05.752Z,1002.38
2017-11-24T08:39:15.732Z,1002.3
2017-11-24T08:40:25.489Z,1002.42
2017-11-24T08:41:34.705Z,1002.46
2017-11-24T08:42:44.155Z,1002.48
2017-11-24T08:43:54.148Z,1002.51
2017-11-24T08:45:03.886Z,1002.46
2017-11-24T08:46:13.643Z,1002.38
2017-11-24T08:47:23.093Z,1002.44
2017-11-24T08:48:33.071Z,1002.32
2017-11-24T08:49:42.791Z,1002.33
2017-11-24T08:50:52.506Z,1002.33
2017-11-24T08:52:02.585Z,1002.42
2017-11-24T08:53:12.349Z,1002.38
2017-11-24T08:54:22.066Z,1002.32
2017-11-24T08:55:31.793Z,1002.36
2017-11-24T08:56:41.505Z,1002.33
2017-11-24T08:57:51.229Z,1002.31
2017-11-24T08:59:00.942Z,1002.3
2017-11-24T09:00:10.919Z,1002.31
2017-11-24T09:01:20.632Z,1002.3
2017-11-24T09:02:30.817Z,1002.3
2017-11-24T09:03:40.820Z,1002.22
2017-11-24T09:04:50.558Z,1002.2
2017-11-24T09:06:00.293Z,1002.14
2017-11-24T09:07:10.260Z,1002.07
2017-11-24T09:08:20.033Z,1002
2017-11-24T09:09:30.012Z,1002.02
2017-11-24T09:10:39.742Z,1002
2017-11-24T09:11:49.722Z,1001.95
2017-11-24T09:12:59.443Z,1001.94
2017-11-24T09:14:09.447Z,1001.99
2017-11-24T09:15:19.204Z,1001.91
2017-11-24T09:16:29.213Z,1001.91
2017-11-24T09:17:38.679Z,1001.95
2017-11-24T09:18:47.862Z,1001.86
2017-11-24T09:19:57.844Z,1001.88
2017-11-24T09:21:07.822Z,1001.88
2017-11-24T09:22:17.544Z,1001.78
2017-11-24T09:23:27.245Z,1001.85
2017-11-24T09:24:37.234Z,1001.79
2017-11-24T09:25:46.956Z,1001.74
2017-11-24T09:26:56.713Z,1001.79
2017-11-24T09:28:06.429Z,1001.82
2017-11-24T09:29:16.141Z,1001.87
2017-11-24T09:30:26.123Z,1001.83
2017-11-24T09:31:36.122Z,1001.83
2017-11-24T09:32:45.913Z,1001.88
2017-11-24T09:33:55.639Z,1001.74
2017-11-24T09:35:05.618Z,1001.82
2017-11-24T09:36:15.606Z,1001.86
2017-11-24T09:37:25.596Z,1001.81
2017-11-24T09:38:35.324Z,1001.82
2017-11-24T09:39:45.327Z,1001.67
2017-11-24T09:40:55.168Z,1001.73
2017-11-24T09:42:04.366Z,1001.75
2017-11-24T09:43:13.824Z,1001.64
2017-11-24T09:44:23.820Z,1001.74
2017-11-24T09:45:33.570Z,1001.74
2017-11-24T09:46:43.302Z,1001.73
2017-11-24T09:47:53.289Z,1001.68
2017-11-24T09:49:03.034Z,1001.49
2017-11-24T09:50:12.226Z,1001.61
2017-11-24T09:51:21.704Z,1001.53
2017-11-24T09:52:31.173Z,1001.6
2017-11-24T09:53:41.165Z,1001.6
2017-11-24T09:54:51.152Z,1001.66
2017-11-24T09:56:01.154Z,1001.59
2017-11-24T09:57:10.617Z,1001.67
2017-11-24T09:58:20.078Z,1001.67
2017-11-24T09:59:29.639Z,1001.67
2017-11-24T10:00:39.371Z,1001.61
2017-11-24T10:01:49.084Z,1001.63
2017-11-24T10:02:58.797Z,1001.67
2017-11-24T10:04:08.828Z,1001.57
2017-11-24T10:05:18.290Z,1001.67
2017-11-24T10:06:28.306Z,1001.67
2017-11-24T10:07:37.767Z,1001.6
2017-11-24T10:08:47.752Z,1001.47
2017-11-24T10:09:57.731Z,1001.58
2017-11-24T10:11:07.718Z,1001.64
2017-11-24T10:12:17.724Z,1001.58
2017-11-24T10:13:27.717Z,1001.54
2017-11-24T10:14:37.430Z,1001.46
2017-11-24T10:15:47.404Z,1001.48
2017-11-24T10:16:57.157Z,1001.38
2017-11-24T10:18:07.143Z,1001.28
2017-11-24T10:19:17.127Z,1001.32
2017-11-24T10:20:26.579Z,1001.29
2017-11-24T10:21:36.310Z,1001.34
2017-11-24T10:22:46.293Z,1001.3
2017-11-24T10:23:55.773Z,1001.38
2017-11-24T10:25:05.284Z,1001.46
2017-11-24T10:26:14.814Z,1001.35
2017-11-24T10:27:24.285Z,1001.22
2017-11-24T10:28:33.732Z,1001.34
2017-11-24T10:29:43.746Z,1001.39
2017-11-24T10:30:53.479Z,1001.45
2017-11-24T10:32:03.469Z,1001.39
2017-11-24T10:33:12.666Z,1001.41
2017-11-24T10:34:22.141Z,1001.31
2017-11-24T10:35:31.876Z,1001.26
2017-11-24T10:36:41.856Z,1001.31
2017-11-24T10:37:51.593Z,1001.36
2017-11-24T10:39:01.341Z,1001.3
2017-11-24T10:40:11.076Z,1001.29
2017-11-24T10:41:20.792Z,1001.19
2017-11-24T10:42:30.806Z,1001.43
2017-11-24T10:43:40.520Z,1001.37
2017-11-24T10:44:49.991Z,1001.42
2017-11-24T10:45:59.716Z,1001.38
2017-11-24T10:47:09.734Z,1001.27
2017-11-24T10:48:19.477Z,1001.29
2017-11-24T10:49:29.189Z,1001.32
2017-11-24T10:50:38.906Z,1001.24
2017-11-24T10:51:48.699Z,1001.29
2017-11-24T10:52:58.693Z,1001.54
2017-11-24T10:54:08.440Z,1001.38
2017-11-24T10:55:18.166Z,1001.33
2017-11-24T10:56:27.925Z,1001.33
2017-11-24T10:57:37.743Z,1001.38
2017-11-24T10:58:47.471Z,1001.31
2017-11-24T10:59:57.188Z,1001.34
2017-11-24T11:01:06.674Z,1001.41
2017-11-24T11:02:16.691Z,1001.25
2017-11-24T11:03:26.737Z,1001.3
2017-11-24T11:04:36.215Z,1001.39
2017-11-24T11:05:46.253Z,1001.37
2017-11-24T11:06:55.963Z,1001.46
2017-11-24T11:08:05.428Z,1001.35
2017-11-24T11:09:15.430Z,1001.34
2017-11-24T11:10:25.146Z,1001.37
2017-11-24T11:11:34.893Z,1001.34
2017-11-24T11:12:44.089Z,1001.31
2017-11-24T11:13:54.093Z,1001.19
2017-11-24T11:15:04.096Z,1001.41
2017-11-24T11:16:13.828Z,1001.18
2017-11-24T11:17:23.822Z,1001.38
2017-11-24T11:18:33.809Z,1001.41
2017-11-24T11:19:43.894Z,1001.56
2017-11-24T11:20:53.915Z,1001.44
2017-11-24T11:22:03.390Z,1001.39
2017-11-24T11:23:12.871Z,1001.48
2017-11-24T11:24:22.848Z,1001.49
2017-11-24T11:25:32.586Z,1001.44
2017-11-24T11:26:42.308Z,1001.48
2017-11-24T11:27:52.316Z,1001.48
2017-11-24T11:29:02.313Z,1001.52
2017-11-24T11:30:12.288Z,1001.45
2017-11-24T11:31:21.227Z,1001.43
2017-11-24T11:32:31.219Z,1001.39
2017-11-24T11:33:41.206Z,1001.45
2017-11-24T11:34:50.391Z,1001.54
2017-11-24T11:36:00.129Z,1001.44
2017-11-24T11:37:09.853Z,1001.54
2017-11-24T11:38:19.621Z,1001.54
2017-11-24T11:39:29.635Z,1001.43
2017-11-24T11:40:39.625Z,1001.63
2017-11-24T11:41:49.613Z,1001.59
2017-11-24T11:42:59.595Z,1001.49
2017-11-24T11:44:09.308Z,1001.5
2017-11-24T11:45:18.787Z,1001.61
2017-11-24T11:46:28.248Z,1001.44
2017-11-24T11:47:37.995Z,1001.49
2017-11-24T11:48:48.070Z,1001.38
2017-11-24T11:49:57.796Z,1001.46
2017-11-24T11:51:07.791Z,1001.47
2017-11-24T11:52:17.785Z,1001.49
2017-11-24T11:53:27.511Z,1001.5
2017-11-24T11:54:36.964Z,1001.53
2017-11-24T11:55:46.693Z,1001.44
2017-11-24T11:56:56.398Z,1001.34
2017-11-24T11:58:06.126Z,1001.48
2017-11-24T11:59:16.130Z,1001.51
2017-11-24T12:00:26.148Z,1001.47
2017-11-24T12:01:35.653Z,1001.52
2017-11-24T12:02:44.924Z,1001.36
2017-11-24T12:03:55.005Z,1001.5
2017-11-24T12:05:04.558Z,1001.49
2017-11-24T12:06:14.678Z,1001.55
2017-11-24T12:07:24.493Z,1001.51
2017-11-24T12:08:34.357Z,1001.36
2017-11-24T12:09:44.449Z,1001.47
2017-11-24T12:10:54.129Z,1001.53
2017-11-24T12:12:03.979Z,1001.54
2017-11-24T12:13:13.790Z,1001.55
2017-11-24T12:14:23.633Z,1001.46
2017-11-24T12:15:33.435Z,1001.56
2017-11-24T12:16:43.703Z,1001.57
2017-11-24T12:17:53.749Z,1001.47
2017-11-24T12:19:03.527Z,1001.54
2017-11-24T12:20:13.254Z,1001.57
2017-11-24T12:21:22.985Z,1001.55
2017-11-24T12:22:32.760Z,1001.27
2017-11-24T12:23:42.809Z,1001.48
2017-11-24T12:24:52.271Z,1001.41
2017-11-24T12:26:02.251Z,1001.52
2017-11-24T12:27:12.267Z,1001.43
2017-11-24T12:28:21.731Z,1001.42
2017-11-24T12:29:31.180Z,1001.62
2017-11-24T12:30:41.200Z,1001.52
2017-11-24T12:31:50.917Z,1001.54
2017-11-24T12:33:00.647Z,1001.51
2017-11-24T12:34:10.619Z,1001.6
2017-11-24T12:35:19.811Z,1001.49
2017-11-24T12:36:29.262Z,1001.46
2017-11-24T12:37:38.980Z,1001.54
2017-11-24T12:38:48.171Z,1001.52
2017-11-24T12:39:57.871Z,1001.53
2017-11-24T12:41:07.870Z,1001.61
2017-11-24T12:42:17.325Z,1001.56
2017-11-24T12:43:27.433Z,1001.51
2017-11-24T12:44:37.311Z,1001.58
2017-11-24T12:45:47.135Z,1001.54
2017-11-24T12:46:57.242Z,1001.53
2017-11-24T12:48:07.150Z,1001.51
2017-11-24T12:49:17.263Z,1001.68
2017-11-24T12:50:27.352Z,1001.48
2017-11-24T12:51:37.194Z,1001.47
2017-11-24T12:52:46.992Z,1001.43
2017-11-24T12:53:57.121Z,1001.57
2017-11-24T12:55:06.925Z,1001.6
2017-11-24T12:56:17.038Z,1001.5
2017-11-24T12:57:27.295Z,1001.5
2017-11-24T12:58:37.277Z,1001.53
2017-11-24T12:59:47.251Z,1001.47
2017-11-24T13:00:57.236Z,1001.46
2017-11-24T13:02:06.997Z,1001.56
2017-11-24T13:03:17.017Z,1001.5
2017-11-24T13:04:26.988Z,1001.68
2017-11-24T13:05:36.980Z,1001.56
2017-11-24T13:06:46.975Z,1001.58
2017-11-24T13:07:56.228Z,1001.51
2017-11-24T13:09:06.725Z,1001.59
2017-11-24T13:10:16.446Z,1001.74
2017-11-24T13:11:26.419Z,1001.71
2017-11-24T13:12:36.415Z,1001.79
2017-11-24T13:13:46.134Z,1001.83
2017-11-24T13:14:55.879Z,1001.96
2017-11-24T13:16:06.145Z,1002.27
2017-11-24T13:17:15.877Z,1001.93
2017-11-24T13:18:25.991Z,1002.23
2017-11-24T13:19:35.995Z,1002.19
2017-11-24T13:20:45.201Z,1002.2
2017-11-24T13:21:55.150Z,1002.14
2017-11-24T13:23:04.906Z,1002.26
2017-11-24T13:24:14.626Z,1002.3
2017-11-24T13:25:24.604Z,1002.36
2017-11-24T13:26:34.325Z,1002.48
2017-11-24T13:27:44.313Z,1002.47
2017-11-24T13:28:54.315Z,1002.52
2017-11-24T13:30:03.789Z,1002.53
2017-11-24T13:31:12.981Z,1002.45
2017-11-24T13:32:22.694Z,1002.43
2017-11-24T13:33:32.404Z,1002.58
2017-11-24T13:34:42.408Z,1002.37
2017-11-24T13:35:52.394Z,1002.46
2017-11-24T13:37:02.371Z,1002.37
2017-11-24T13:38:11.575Z,1002.41
2017-11-24T13:39:21.045Z,1002.41
2017-11-24T13:40:30.758Z,1002.6
2017-11-24T13:41:40.483Z,1002.54
2017-11-24T13:42:50.469Z,1002.42
2017-11-24T13:43:59.923Z,1002.42
2017-11-24T13:45:09.683Z,1002.52
2017-11-24T13:46:18.915Z,1002.63
2017-11-24T13:47:28.907Z,1002.43
2017-11-24T13:48:38.635Z,1002.56
2017-11-24T13:49:48.093Z,1002.48
2017-11-24T13:50:58.105Z,1002.53
2017-11-24T13:52:08.338Z,1002.51
2017-11-24T13:53:18.380Z,1002.57
2017-11-24T13:54:28.426Z,1002.64
2017-11-24T13:55:38.408Z,1002.64
2017-11-24T13:56:48.119Z,1002.66
2017-11-24T13:57:57.841Z,1002.67
2017-11-24T13:59:07.567Z,1002.61
2017-11-24T14:00:17.030Z,1002.85
2017-11-24T14:01:27.002Z,1002.69
2017-11-24T14:02:36.974Z,1002.71
2017-11-24T14:03:46.790Z,1002.64
2017-11-24T14:04:56.524Z,1002.69
2017-11-24T14:06:06.242Z,1002.63
2017-11-24T14:07:15.975Z,1002.69